Time;durP1;ratioP1;P1;durP2;ratioP2;P2;SDS_P1;SDS_P2;PMS_P1;PMS_P2;Temp;Humidity;BMP_temperature;BMP_pressure;BME280_temperature;BME280_humidity;BME280_pressure;Samples;Min_cycle;Max_cycle;Signal;HPM_P1;HPM_P2
2022/07/04 00:00:19;;;;;;;2.53;0.85;;;;;;;;;;5032239;28;20458;-81
2022/07/04 00:02:46;;;;;;;4.03;0.45;;;;;;;;;;5045630;28;20064;-81
2022/07/04 00:05:11;;;;;;;2.47;0.45;;;;;;;;;;5012362;28;20041;-81
2022/07/04 00:07:37;;;;;;;1.05;0.40;;;;;;;;;;5012530;28;20030;-81
2022/07/04 00:10:04;;;;;;;2.10;0.60;;;;;;;;;;5012782;28;20112;-82
2022/07/04 00:12:30;;;;;;;0.80;0.30;;;;;;;;;;4996063;28;20038;-81
2022/07/04 00:14:55;;;;;;;1.17;0.40;;;;;;;;;;4996579;28;20503;-82
2022/07/04 00:17:21;;;;;;;1.92;0.73;;;;;;;;;;4995890;28;20046;-79
2022/07/04 00:19:46;;;;;;;1.38;0.60;;;;;;;;;;5024199;28;20111;-80
2022/07/04 00:22:12;;;;;;;1.63;0.63;;;;;;;;;;5019051;28;20118;-80
2022/07/04 00:24:37;;;;;;;1.50;0.40;;;;;;;;;;5019002;28;20036;-79
2022/07/04 00:27:03;;;;;;;1.90;0.30;;;;;;;;;;5018539;28;20053;-79
2022/07/04 00:29:29;;;;;;;1.25;0.50;;;;;;;;;;5018798;28;20056;-79
2022/07/04 00:31:55;;;;;;;3.55;0.70;;;;;;;;;;5018789;28;20033;-79
2022/07/04 00:34:20;;;;;;;1.25;0.30;;;;;;;;;;5035293;28;20029;-79
2022/07/04 00:36:46;;;;;;;2.10;1.20;;;;;;;;;;5035333;28;20170;-79
2022/07/04 00:39:11;;;;;;;1.42;0.52;;;;;;;;;;5018564;28;20037;-79
2022/07/04 00:41:37;;;;;;;1.10;0.47;;;;;;;;;;5018157;28;20134;-80
2022/07/04 00:44:04;;;;;;;1.65;0.50;;;;;;;;;;5017678;28;20029;-80
2022/07/04 00:46:29;;;;;;;1.95;0.35;;;;;;;;;;5031497;28;20504;-79
2022/07/04 00:48:55;;;;;;;1.80;0.60;;;;;;;;;;5031420;28;20052;-79
2022/07/04 00:51:20;;;;;;;1.33;0.60;;;;;;;;;;5031379;28;20033;-79
2022/07/04 00:53:46;;;;;;;1.67;0.68;;;;;;;;;;5031407;28;20393;-80
2022/07/04 00:56:11;;;;;;;1.17;0.65;;;;;;;;;;5047721;28;20041;-79
2022/07/04 00:58:37;;;;;;;2.40;1.02;;;;;;;;;;5014498;28;20041;-79
2022/07/04 01:01:02;;;;;;;1.55;0.57;;;;;;;;;;5030978;28;20033;-79
2022/07/04 01:03:27;;;;;;;1.42;0.70;;;;;;;;;;5014985;28;20041;-79
2022/07/04 01:05:53;;;;;;;1.92;0.70;;;;;;;;;;5014354;28;20045;-79
2022/07/04 01:08:18;;;;;;;1.25;0.60;;;;;;;;;;5014975;28;20037;-79
2022/07/04 01:10:44;;;;;;;2.47;0.70;;;;;;;;;;5014270;28;20037;-80
2022/07/04 01:13:19;;;;;;;1.27;0.50;;;;;;;;;;5014645;28;20033;-80
2022/07/04 01:15:45;;;;;;;2.58;0.80;;;;;;;;;;5030798;28;20041;-79
2022/07/04 01:18:11;;;;;;;2.10;0.93;;;;;;;;;;5015537;28;20466;-79
2022/07/04 01:20:37;;;;;;;1.48;0.68;;;;;;;;;;5033971;28;20037;-79
2022/07/04 01:23:02;;;;;;;2.33;0.80;;;;;;;;;;5001527;28;20032;-79
2022/07/04 01:25:28;;;;;;;2.25;1.05;;;;;;;;;;5017562;28;20513;-79
2022/07/04 01:27:53;;;;;;;2.95;1.08;;;;;;;;;;5001465;28;20033;-79
2022/07/04 01:30:19;;;;;;;1.60;0.75;;;;;;;;;;5001393;28;20029;-79
2022/07/04 01:32:44;;;;;;;2.75;0.90;;;;;;;;;;5018163;28;20033;-79
2022/07/04 01:35:12;;;;;;;2.25;1.02;;;;;;;;;;5017419;28;20041;-79
2022/07/04 01:37:38;;;;;;;2.30;1.10;;;;;;;;;;5018355;28;20515;-79
2022/07/04 01:40:04;;;;;;;2.30;0.70;;;;;;;;;;5017187;28;20039;-79
2022/07/04 01:42:29;;;;;;;2.80;0.70;;;;;;;;;;5018092;28;20025;-81
2022/07/04 01:44:55;;;;;;;2.50;1.10;;;;;;;;;;5006158;28;20451;-81
2022/07/04 01:47:20;;;;;;;1.95;0.65;;;;;;;;;;4995042;28;20112;-81
2022/07/04 01:49:45;;;;;;;2.33;0.90;;;;;;;;;;4996140;28;20095;-81
2022/07/04 01:52:11;;;;;;;1.80;0.65;;;;;;;;;;5011092;28;20057;-80
2022/07/04 01:54:36;;;;;;;1.95;0.85;;;;;;;;;;5027033;28;20038;-81
2022/07/04 01:57:02;;;;;;;2.15;0.57;;;;;;;;;;5010629;28;20038;-81
2022/07/04 02:02:11;;;;;;;2.65;1.13;;;;;;;;;;5034671;28;20038;-81
2022/07/04 02:04:37;;;;;;;2.17;0.60;;;;;;;;;;5013815;28;20766;-81
2022/07/04 02:07:02;;;;;;;2.08;0.90;;;;;;;;;;5013822;28;20064;-81
2022/07/04 02:09:30;;;;;;;2.97;0.80;;;;;;;;;;4997637;28;20397;-81
2022/07/04 02:14:41;;;;;;;1.45;0.80;;;;;;;;;;5020853;28;20073;-80
2022/07/04 02:17:07;;;;;;;1.65;0.80;;;;;;;;;;5001973;28;20154;-81
2022/07/04 02:19:32;;;;;;;2.53;0.85;;;;;;;;;;5046398;28;20547;-81
2022/07/04 02:21:58;;;;;;;3.78;1.35;;;;;;;;;;5037457;28;20506;-81
2022/07/04 02:24:23;;;;;;;3.10;1.23;;;;;;;;;;5021213;28;20518;-81
2022/07/04 02:26:49;;;;;;;2.53;0.88;;;;;;;;;;5037361;28;20033;-81
2022/07/04 02:29:15;;;;;;;2.35;0.98;;;;;;;;;;5021262;28;20494;-80
2022/07/04 02:31:40;;;;;;;2.55;1.10;;;;;;;;;;5020877;28;20036;-79
2022/07/04 02:34:05;;;;;;;1.83;0.90;;;;;;;;;;5021242;28;20068;-79
2022/07/04 02:36:31;;;;;;;1.77;0.93;;;;;;;;;;5037069;28;20037;-80
2022/07/04 02:38:56;;;;;;;2.22;0.95;;;;;;;;;;5020701;28;20089;-79
2022/07/04 02:41:22;;;;;;;1.90;0.80;;;;;;;;;;5037362;28;20037;-79
2022/07/04 02:43:48;;;;;;;3.42;1.42;;;;;;;;;;5037455;28;20041;-79
2022/07/04 02:46:14;;;;;;;3.08;0.75;;;;;;;;;;5015317;28;20037;-79
2022/07/04 02:48:39;;;;;;;2.35;0.80;;;;;;;;;;5030377;28;20104;-79
2022/07/04 02:51:05;;;;;;;2.10;1.00;;;;;;;;;;5037191;28;20095;-80
2022/07/04 02:53:31;;;;;;;2.78;1.13;;;;;;;;;;5000860;28;20039;-80
2022/07/04 02:55:57;;;;;;;2.17;0.73;;;;;;;;;;5000545;28;20037;-79
2022/07/04 02:58:22;;;;;;;3.50;1.00;;;;;;;;;;5000791;28;20071;-79
2022/07/04 03:00:47;;;;;;;2.40;1.23;;;;;;;;;;5033400;28;20037;-79
2022/07/04 03:03:13;;;;;;;2.88;0.98;;;;;;;;;;5000744;28;20416;-81
2022/07/04 03:05:38;;;;;;;2.38;1.10;;;;;;;;;;4984096;28;20076;-81
2022/07/04 03:08:05;;;;;;;3.83;1.13;;;;;;;;;;5049958;28;20043;-82
2022/07/04 03:10:30;;;;;;;2.92;0.90;;;;;;;;;;4984516;28;20033;-81
2022/07/04 03:12:56;;;;;;;3.40;1.25;;;;;;;;;;5016988;28;20034;-81
2022/07/04 03:15:21;;;;;;;1.48;0.93;;;;;;;;;;5049889;28;20041;-82
2022/07/04 03:17:47;;;;;;;1.63;1.00;;;;;;;;;;5033108;28;20029;-81
2022/07/04 03:20:12;;;;;;;5.97;1.67;;;;;;;;;;5034061;28;20053;-82
2022/07/04 03:22:38;;;;;;;2.05;0.98;;;;;;;;;;5036535;28;20052;-82
2022/07/04 03:25:05;;;;;;;2.42;0.80;;;;;;;;;;5019703;28;20052;-81
2022/07/04 03:27:30;;;;;;;2.55;1.25;;;;;;;;;;5036788;28;20032;-81
2022/07/04 03:29:55;;;;;;;2.10;0.98;;;;;;;;;;5036217;28;20033;-81
2022/07/04 03:32:21;;;;;;;2.33;0.85;;;;;;;;;;5036360;28;20068;-81
2022/07/04 03:34:46;;;;;;;2.55;0.80;;;;;;;;;;5019529;28;20036;-81
2022/07/04 03:37:12;;;;;;;2.38;0.90;;;;;;;;;;5036281;28;20049;-81
2022/07/04 03:39:37;;;;;;;3.00;1.10;;;;;;;;;;5003265;28;20427;-81
2022/07/04 03:42:03;;;;;;;2.15;0.70;;;;;;;;;;5036227;28;20106;-81
2022/07/04 03:44:28;;;;;;;2.78;1.05;;;;;;;;;;4999169;28;20021;-81
2022/07/04 03:46:54;;;;;;;1.77;0.63;;;;;;;;;;5032560;28;20080;-81
2022/07/04 03:49:19;;;;;;;1.30;0.65;;;;;;;;;;5015884;28;20462;-81
2022/07/04 03:51:45;;;;;;;1.33;0.63;;;;;;;;;;5016213;28;20041;-81
2022/07/04 03:54:10;;;;;;;2.42;1.25;;;;;;;;;;5016235;28;20407;-81
2022/07/04 03:56:36;;;;;;;1.40;0.68;;;;;;;;;;5016142;28;20064;-81
2022/07/04 03:59:01;;;;;;;2.22;1.05;;;;;;;;;;4999668;28;20047;-81
2022/07/04 04:01:27;;;;;;;1.58;0.93;;;;;;;;;;4979785;28;20030;-81
2022/07/04 04:06:36;;;;;;;2.03;0.65;;;;;;;;;;5012979;28;20113;-81
2022/07/04 04:09:01;;;;;;;2.05;0.57;;;;;;;;;;5012591;28;20060;-82
2022/07/04 04:11:27;;;;;;;0.95;0.50;;;;;;;;;;5012426;28;20042;-81
2022/07/04 04:13:52;;;;;;;3.55;1.00;;;;;;;;;;5012451;28;20045;-81
2022/07/04 04:16:18;;;;;;;2.35;0.80;;;;;;;;;;5028814;28;20038;-81
2022/07/04 04:18:43;;;;;;;3.13;0.90;;;;;;;;;;5014339;28;20030;-82
2022/07/04 04:21:08;;;;;;;1.38;0.57;;;;;;;;;;4995928;28;20079;-82
2022/07/04 04:23:34;;;;;;;2.10;0.90;;;;;;;;;;5028957;28;20034;-82
2022/07/04 04:25:59;;;;;;;1.02;0.40;;;;;;;;;;5012200;28;20038;-81
2022/07/04 04:28:25;;;;;;;1.42;0.65;;;;;;;;;;5012532;28;20115;-81
2022/07/04 04:30:50;;;;;;;1.80;0.70;;;;;;;;;;4995928;28;20050;-81
2022/07/04 04:33:16;;;;;;;2.83;0.98;;;;;;;;;;4994612;28;20040;-82
2022/07/04 04:35:41;;;;;;;1.67;0.77;;;;;;;;;;4995714;28;20065;-82
2022/07/04 04:38:07;;;;;;;2.00;0.63;;;;;;;;;;5012280;28;20030;-81
2022/07/04 04:40:32;;;;;;;1.63;0.38;;;;;;;;;;5028246;28;20042;-81
2022/07/04 04:42:58;;;;;;;2.15;0.60;;;;;;;;;;4995723;28;20065;-81
2022/07/04 04:45:23;;;;;;;3.97;0.70;;;;;;;;;;5007307;28;20037;-81
2022/07/04 04:47:48;;;;;;;1.25;0.57;;;;;;;;;;5031621;28;20091;-81
2022/07/04 04:50:14;;;;;;;2.53;0.95;;;;;;;;;;5014802;28;20496;-81
2022/07/04 04:52:43;;;;;;;1.48;0.55;;;;;;;;;;5015264;28;20033;-81
2022/07/04 04:55:08;;;;;;;2.83;1.27;;;;;;;;;;5031407;28;20034;-81
2022/07/04 04:57:34;;;;;;;2.47;0.65;;;;;;;;;;5030958;28;20049;-81
2022/07/04 05:00:00;;;;;;;4.18;0.80;;;;;;;;;;5014727;28;20040;-82
2022/07/04 05:02:26;;;;;;;3.72;0.57;;;;;;;;;;5036226;28;20025;-82
2022/07/04 05:04:52;;;;;;;2.65;1.17;;;;;;;;;;4995415;28;20515;-81
2022/07/04 05:07:17;;;;;;;4.45;0.90;;;;;;;;;;5011224;28;20030;-81
2022/07/04 05:09:42;;;;;;;1.55;0.70;;;;;;;;;;5011230;28;20038;-81
2022/07/04 05:12:09;;;;;;;2.10;0.73;;;;;;;;;;4995606;28;20050;-81
2022/07/04 05:14:34;;;;;;;1.63;0.82;;;;;;;;;;5011448;28;20042;-81
2022/07/04 05:17:00;;;;;;;1.50;0.60;;;;;;;;;;5027036;28;20041;-81
2022/07/04 05:19:26;;;;;;;2.13;0.82;;;;;;;;;;5034189;28;20048;-82
2022/07/04 05:21:52;;;;;;;2.38;0.60;;;;;;;;;;5034509;28;20102;-82
2022/07/04 05:24:18;;;;;;;1.83;0.75;;;;;;;;;;5017942;28;20045;-81
2022/07/04 05:26:43;;;;;;;2.95;0.60;;;;;;;;;;5034594;28;20048;-81
2022/07/04 05:29:09;;;;;;;1.55;0.55;;;;;;;;;;5017640;28;20045;-82
2022/07/04 05:31:34;;;;;;;2.38;0.80;;;;;;;;;;4991600;28;20037;-82
2022/07/04 05:33:59;;;;;;;1.85;0.68;;;;;;;;;;5005772;28;20041;-81
2022/07/04 05:36:25;;;;;;;2.15;0.73;;;;;;;;;;5038410;28;20044;-82
2022/07/04 05:38:51;;;;;;;3.92;1.00;;;;;;;;;;4981317;28;20065;-82
2022/07/04 05:41:16;;;;;;;2.10;0.55;;;;;;;;;;5030453;28;20026;-83
2022/07/04 05:43:41;;;;;;;2.25;0.70;;;;;;;;;;5030013;28;20483;-83
2022/07/04 05:46:07;;;;;;;3.20;0.77;;;;;;;;;;5013483;28;20487;-83
2022/07/04 05:48:32;;;;;;;2.10;0.73;;;;;;;;;;5030684;28;20124;-82
2022/07/04 05:50:58;;;;;;;2.85;0.90;;;;;;;;;;5030421;28;20052;-83
2022/07/04 05:53:23;;;;;;;3.00;0.80;;;;;;;;;;5030575;28;20112;-82
2022/07/04 05:55:49;;;;;;;2.13;0.55;;;;;;;;;;5013986;28;20048;-82
2022/07/04 05:58:15;;;;;;;2.92;0.98;;;;;;;;;;5013928;28;20037;-82
2022/07/04 06:00:41;;;;;;;2.67;0.75;;;;;;;;;;5013583;28;20044;-83
2022/07/04 06:03:07;;;;;;;2.38;0.73;;;;;;;;;;5010667;28;20030;-83
2022/07/04 06:05:33;;;;;;;2.08;0.80;;;;;;;;;;5026953;28;20041;-83
2022/07/04 06:07:58;;;;;;;1.95;0.65;;;;;;;;;;5010696;28;20034;-81
2022/07/04 06:10:24;;;;;;;2.55;0.80;;;;;;;;;;5010584;28;20061;-81
2022/07/04 06:12:49;;;;;;;2.85;0.90;;;;;;;;;;5011121;28;20038;-81
2022/07/04 06:15:15;;;;;;;2.03;0.60;;;;;;;;;;5010133;28;20397;-81
2022/07/04 06:17:41;;;;;;;2.40;0.73;;;;;;;;;;5026895;28;20034;-82
2022/07/04 06:20:07;;;;;;;1.92;0.70;;;;;;;;;;5021405;28;20434;-82
2022/07/04 06:22:42;;;;;;;3.75;0.60;;;;;;;;;;4997082;28;20037;-81
2022/07/04 06:25:14;;;;;;;4.05;0.60;;;;;;;;;;5013392;28;20040;-80
2022/07/04 06:27:42;;;;;;;5.60;1.00;;;;;;;;;;5013809;28;20029;-81
2022/07/04 06:30:08;;;;;;;4.18;1.08;;;;;;;;;;5029606;28;20048;-81
2022/07/04 06:32:46;;;;;;;2.13;0.60;;;;;;;;;;5030455;28;20038;-81
2022/07/04 06:37:56;;;;;;;2.47;0.98;;;;;;;;;;5016000;28;20025;-80
2022/07/04 06:40:21;;;;;;;2.20;0.70;;;;;;;;;;5030175;28;20496;-81
2022/07/04 06:42:47;;;;;;;4.38;0.60;;;;;;;;;;5013567;28;20068;-85
2022/07/04 06:45:13;;;;;;;5.65;1.23;;;;;;;;;;5046649;28;20049;-84
2022/07/04 06:47:39;;;;;;;2.28;0.88;;;;;;;;;;5030743;28;20045;-85
2022/07/04 06:50:05;;;;;;;2.63;0.98;;;;;;;;;;5022426;28;20042;-84
2022/07/04 06:52:31;;;;;;;4.47;0.90;;;;;;;;;;4993961;28;20104;-84
2022/07/04 06:54:57;;;;;;;3.60;0.80;;;;;;;;;;5026831;28;20509;-86
2022/07/04 06:57:24;;;;;;;3.78;1.63;;;;;;;;;;5013382;28;20476;-84
2022/07/04 06:59:51;;;;;;;5.28;1.60;;;;;;;;;;4998018;28;20034;-84
2022/07/04 07:02:17;;;;;;;2.30;1.02;;;;;;;;;;5028014;28;20044;-84
2022/07/04 07:04:43;;;;;;;5.03;1.70;;;;;;;;;;5037170;28;20033;-84
2022/07/04 07:07:09;;;;;;;1.88;0.80;;;;;;;;;;5037255;28;20041;-84
2022/07/04 07:09:35;;;;;;;7.40;1.15;;;;;;;;;;5020632;28;20041;-84
2022/07/04 07:12:00;;;;;;;5.85;1.05;;;;;;;;;;5020283;28;20557;-84
2022/07/04 07:14:26;;;;;;;2.83;1.30;;;;;;;;;;5036840;28;20103;-84
2022/07/04 07:16:51;;;;;;;5.00;1.23;;;;;;;;;;5037075;28;20044;-84
2022/07/04 07:19:17;;;;;;;4.80;1.80;;;;;;;;;;5020045;28;20087;-84
2022/07/04 07:21:42;;;;;;;3.70;0.90;;;;;;;;;;5020561;28;20179;-84
2022/07/04 07:24:08;;;;;;;3.80;0.90;;;;;;;;;;5003759;28;20178;-83
2022/07/04 07:26:33;;;;;;;3.95;0.98;;;;;;;;;;5036548;28;20041;-84
2022/07/04 07:29:00;;;;;;;2.97;1.08;;;;;;;;;;5020793;28;20087;-84
2022/07/04 07:31:25;;;;;;;2.05;0.90;;;;;;;;;;5020260;28;20040;-84
2022/07/04 07:33:51;;;;;;;3.60;1.20;;;;;;;;;;5019947;28;20040;-84
2022/07/04 07:36:16;;;;;;;4.07;1.20;;;;;;;;;;5019991;28;20044;-84
2022/07/04 07:38:42;;;;;;;5.50;1.50;;;;;;;;;;5019923;28;20380;-84
2022/07/04 07:41:09;;;;;;;3.65;0.75;;;;;;;;;;5019834;28;20482;-84
2022/07/04 07:43:35;;;;;;;8.02;0.93;;;;;;;;;;5020118;28;20025;-84
2022/07/04 07:46:00;;;;;;;6.65;1.30;;;;;;;;;;5019816;28;20564;-84
2022/07/04 07:48:27;;;;;;;7.30;1.23;;;;;;;;;;5003736;28;20127;-85
2022/07/04 07:50:52;;;;;;;3.28;1.15;;;;;;;;;;4989349;28;20037;-84
2022/07/04 07:53:18;;;;;;;2.72;0.80;;;;;;;;;;4984304;28;20492;-84
2022/07/04 07:55:44;;;;;;;4.38;0.80;;;;;;;;;;4983680;28;20447;-84
2022/07/04 07:58:10;;;;;;;5.60;1.58;;;;;;;;;;4984070;28;20065;-84
2022/07/04 08:00:37;;;;;;;8.70;2.88;;;;;;;;;;4983720;28;20040;-84
2022/07/04 08:05:48;;;;;;;7.20;2.20;;;;;;;;;;5038110;28;20029;-83
2022/07/04 08:08:16;;;;;;;6.03;1.10;;;;;;;;;;5017807;28;20037;-83
2022/07/04 08:10:41;;;;;;;11.18;2.35;;;;;;;;;;5035827;28;20079;-82
2022/07/04 08:13:07;;;;;;;4.93;1.25;;;;;;;;;;5019259;28;20033;-81
2022/07/04 08:15:32;;;;;;;9.65;1.38;;;;;;;;;;5035645;28;20451;-80
2022/07/04 08:17:59;;;;;;;5.05;1.00;;;;;;;;;;5018935;28;20048;-80
2022/07/04 08:20:25;;;;;;;5.50;1.10;;;;;;;;;;5018991;28;20116;-79
2022/07/04 08:22:50;;;;;;;3.63;1.23;;;;;;;;;;5002952;28;20059;-80
2022/07/04 08:25:16;;;;;;;4.60;0.88;;;;;;;;;;5018391;28;20032;-80
2022/07/04 08:27:42;;;;;;;3.85;0.80;;;;;;;;;;5036096;28;20506;-80
2022/07/04 08:30:08;;;;;;;2.80;0.95;;;;;;;;;;5018762;28;20033;-80
2022/07/04 08:32:33;;;;;;;4.93;0.75;;;;;;;;;;5035289;28;20043;-80
2022/07/04 08:34:59;;;;;;;5.97;0.88;;;;;;;;;;5018662;28;20037;-80
2022/07/04 08:37:24;;;;;;;3.95;0.80;;;;;;;;;;5018568;28;20396;-80
2022/07/04 08:39:50;;;;;;;4.05;0.60;;;;;;;;;;5000522;28;20040;-82
2022/07/04 08:42:17;;;;;;;2.30;0.63;;;;;;;;;;4999611;28;20041;-81
2022/07/04 08:44:46;;;;;;;2.63;0.50;;;;;;;;;;5028339;28;20053;-81
2022/07/04 08:47:12;;;;;;;3.13;0.70;;;;;;;;;;5028952;28;20042;-81
2022/07/04 08:49:37;;;;;;;1.92;0.47;;;;;;;;;;5014755;28;20454;-81
2022/07/04 08:52:06;;;;;;;3.67;0.50;;;;;;;;;;4998475;28;20080;-81
2022/07/04 09:00:01;;;;;;;2.38;0.65;;;;;;;;;;5003227;28;20037;-81
2022/07/04 09:02:29;;;;;;;3.13;0.38;;;;;;;;;;4995088;28;20041;-82
2022/07/04 09:04:55;;;;;;;1.90;0.50;;;;;;;;;;5011115;28;20037;-81
2022/07/04 09:07:20;;;;;;;2.13;0.60;;;;;;;;;;5027662;28;20165;-81
2022/07/04 09:09:46;;;;;;;2.80;0.30;;;;;;;;;;5011481;28;20077;-81
2022/07/04 09:12:11;;;;;;;1.50;0.25;;;;;;;;;;5028078;28;20049;-81
2022/07/04 09:14:37;;;;;;;2.67;0.70;;;;;;;;;;5011622;28;20380;-81
2022/07/04 09:17:04;;;;;;;2.60;0.50;;;;;;;;;;4995022;28;20061;-81
2022/07/04 09:19:29;;;;;;;2.05;0.40;;;;;;;;;;5034545;28;20040;-81
2022/07/04 09:21:55;;;;;;;2.42;0.43;;;;;;;;;;5017684;28;20037;-82
2022/07/04 09:24:43;;;;;;;1.98;0.55;;;;;;;;;;5017781;28;20052;-81
2022/07/04 09:27:08;;;;;;;3.25;0.40;;;;;;;;;;5018432;28;20479;-81
2022/07/04 09:29:34;;;;;;;1.63;0.20;;;;;;;;;;5017852;28;20036;-81
2022/07/04 09:32:00;;;;;;;0.80;0.30;;;;;;;;;;5033742;28;20044;-81
2022/07/04 09:34:27;;;;;;;2.47;0.68;;;;;;;;;;5017504;28;20041;-81
2022/07/04 09:36:55;;;;;;;3.65;0.60;;;;;;;;;;5017923;28;20075;-82
2022/07/04 09:39:21;;;;;;;0.65;0.25;;;;;;;;;;5018206;28;20036;-82
2022/07/04 09:42:02;;;;;;;0.65;0.38;;;;;;;;;;5001148;28;20547;-81
2022/07/04 09:44:31;;;;;;;1.05;0.38;;;;;;;;;;5013442;28;20487;-82
2022/07/04 09:46:59;;;;;;;1.45;0.40;;;;;;;;;;5063694;28;20061;-82
2022/07/04 09:49:24;;;;;;;1.10;0.28;;;;;;;;;;5014614;28;20041;-81
2022/07/04 09:51:51;;;;;;;1.73;0.50;;;;;;;;;;5030303;28;20056;-81
2022/07/04 09:54:17;;;;;;;1.38;0.45;;;;;;;;;;4981789;28;20492;-82
2022/07/04 09:56:44;;;;;;;1.20;0.40;;;;;;;;;;5030687;28;20048;-82
2022/07/04 09:59:09;;;;;;;2.08;0.55;;;;;;;;;;5030783;28;20043;-82
2022/07/04 10:01:35;;;;;;;1.40;0.40;;;;;;;;;;4993946;28;20439;-81
2022/07/04 10:04:03;;;;;;;1.38;0.43;;;;;;;;;;5010728;28;20076;-81
2022/07/04 10:06:31;;;;;;;2.00;0.55;;;;;;;;;;5010218;28;20504;-82
2022/07/04 10:09:08;;;;;;;2.50;0.40;;;;;;;;;;4994382;28;20034;-82
2022/07/04 10:11:34;;;;;;;1.77;0.38;;;;;;;;;;5027101;28;20048;-82
2022/07/04 10:14:00;;;;;;;6.10;2.38;;;;;;;;;;5010447;28;20073;-82
2022/07/04 10:16:26;;;;;;;4.03;0.60;;;;;;;;;;5010283;28;20057;-80
2022/07/04 10:18:51;;;;;;;1.80;0.50;;;;;;;;;;5013971;28;20040;-81
2022/07/04 10:21:17;;;;;;;4.30;0.50;;;;;;;;;;4993943;28;20034;-81
2022/07/04 10:23:42;;;;;;;0.73;0.40;;;;;;;;;;5010956;28;20069;-81
2022/07/04 10:26:09;;;;;;;2.75;0.40;;;;;;;;;;5010883;28;20113;-83
2022/07/04 10:28:34;;;;;;;1.25;0.40;;;;;;;;;;5010282;28;20088;-82
2022/07/04 10:31:00;;;;;;;2.00;0.60;;;;;;;;;;4994897;28;20037;-83
2022/07/04 10:33:27;;;;;;;1.83;0.38;;;;;;;;;;5030926;28;20037;-83
2022/07/04 10:35:56;;;;;;;1.77;0.40;;;;;;;;;;4997535;28;20109;-82
2022/07/04 10:38:23;;;;;;;1.95;0.30;;;;;;;;;;5014460;28;20036;-83
2022/07/04 10:40:53;;;;;;;3.25;0.40;;;;;;;;;;4982145;28;20041;-82
2022/07/04 10:43:43;;;;;;;1.67;0.30;;;;;;;;;;4998585;28;20038;-82
2022/07/04 10:46:15;;;;;;;4.28;0.93;;;;;;;;;;5015439;28;20171;-83
2022/07/04 10:49:00;;;;;;;2.13;0.35;;;;;;;;;;5033631;28;20034;-83
2022/07/04 10:51:37;;;;;;;1.25;0.35;;;;;;;;;;5030062;28;20531;-82
2022/07/04 10:54:19;;;;;;;2.25;1.00;;;;;;;;;;5030609;28;20050;-82
2022/07/04 10:56:48;;;;;;;1.55;0.40;;;;;;;;;;5047882;28;20040;-83
2022/07/04 10:59:22;;;;;;;4.68;0.63;;;;;;;;;;5030665;28;20049;-82
2022/07/04 11:02:06;;;;;;;2.88;0.70;;;;;;;;;;5043918;28;20040;-82
2022/07/04 11:04:50;;;;;;;1.95;0.40;;;;;;;;;;5015453;28;20036;-83
2022/07/04 11:07:20;;;;;;;2.97;0.43;;;;;;;;;;5014343;28;20029;-82
2022/07/04 11:09:47;;;;;;;3.33;0.60;;;;;;;;;;5013877;28;20030;-83
2022/07/04 11:12:14;;;;;;;3.60;0.43;;;;;;;;;;5030589;28;20049;-82
2022/07/04 11:14:43;;;;;;;1.50;0.30;;;;;;;;;;5013824;28;20120;-83
2022/07/04 11:17:11;;;;;;;2.45;0.40;;;;;;;;;;4997184;28;20128;-83
2022/07/04 11:19:37;;;;;;;1.65;0.60;;;;;;;;;;5042453;28;20038;-83
2022/07/04 11:22:04;;;;;;;2.80;0.43;;;;;;;;;;5016838;28;20111;-81
2022/07/04 11:24:30;;;;;;;0.93;0.45;;;;;;;;;;5033416;28;20033;-82
2022/07/04 11:26:55;;;;;;;4.78;0.57;;;;;;;;;;5000600;28;20036;-83
2022/07/04 11:29:21;;;;;;;1.25;0.40;;;;;;;;;;5016727;28;20041;-82
2022/07/04 11:31:48;;;;;;;1.60;0.47;;;;;;;;;;5016572;28;20083;-83
2022/07/04 11:34:14;;;;;;;2.05;0.60;;;;;;;;;;5000313;28;20482;-82
2022/07/04 11:36:40;;;;;;;1.38;0.40;;;;;;;;;;5000078;28;20068;-82
2022/07/04 11:39:11;;;;;;;0.57;0.30;;;;;;;;;;5033630;28;20116;-83
2022/07/04 11:47:12;;;;;;;1.40;0.50;;;;;;;;;;5018526;28;20026;-82
2022/07/04 11:50:02;;;;;;;2.97;0.45;;;;;;;;;;5029468;28;20034;-83
2022/07/04 11:52:37;;;;;;;2.80;0.45;;;;;;;;;;4982949;28;20050;-83
2022/07/04 11:55:07;;;;;;;2.00;0.40;;;;;;;;;;5030821;28;20500;-83
2022/07/04 11:57:37;;;;;;;1.25;0.25;;;;;;;;;;5029598;28;20038;-83
2022/07/04 12:00:11;;;;;;;1.92;0.30;;;;;;;;;;5028926;28;20034;-83
2022/07/04 12:02:37;;;;;;;5.55;0.75;;;;;;;;;;5019086;28;20054;-82
2022/07/04 12:05:10;;;;;;;5.55;1.73;;;;;;;;;;5032279;28;20491;-83
2022/07/04 12:07:37;;;;;;;3.35;1.75;;;;;;;;;;5024224;28;20030;-83
2022/07/04 12:10:10;;;;;;;3.53;1.33;;;;;;;;;;4996181;28;20042;-84
2022/07/04 12:12:35;;;;;;;2.30;0.65;;;;;;;;;;5029266;28;20091;-83
2022/07/04 12:15:02;;;;;;;1.48;0.43;;;;;;;;;;4996347;28;20046;-83
2022/07/04 12:17:34;;;;;;;2.53;0.50;;;;;;;;;;5027423;28;20459;-83
2022/07/04 12:20:03;;;;;;;1.13;0.32;;;;;;;;;;5060613;28;20096;-84
2022/07/04 12:22:35;;;;;;;1.15;0.35;;;;;;;;;;5048025;28;20037;-83
2022/07/04 12:25:01;;;;;;;0.95;0.30;;;;;;;;;;4999183;28;20037;-83
2022/07/04 12:27:27;;;;;;;1.20;0.43;;;;;;;;;;5032170;28;20400;-84
2022/07/04 12:29:53;;;;;;;1.95;0.40;;;;;;;;;;4999032;28;20369;-83
2022/07/04 12:32:19;;;;;;;2.42;0.32;;;;;;;;;;5014045;28;20400;-82
2022/07/04 12:34:45;;;;;;;0.95;0.30;;;;;;;;;;5014769;28;20496;-83
2022/07/04 12:37:12;;;;;;;1.42;0.40;;;;;;;;;;4998640;28;20033;-83
2022/07/04 12:39:39;;;;;;;1.02;0.32;;;;;;;;;;4998798;28;20455;-83
2022/07/04 12:42:16;;;;;;;1.52;0.40;;;;;;;;;;4998953;28;20030;-83
2022/07/04 12:44:42;;;;;;;2.60;0.20;;;;;;;;;;4999835;28;20061;-83
2022/07/04 12:47:09;;;;;;;3.33;0.40;;;;;;;;;;5031359;28;20373;-83
2022/07/04 12:49:34;;;;;;;2.10;0.60;;;;;;;;;;4998697;28;20069;-82
2022/07/04 12:52:13;;;;;;;1.17;0.25;;;;;;;;;;4998321;28;20044;-84
2022/07/04 12:54:39;;;;;;;1.92;0.45;;;;;;;;;;5032081;28;20041;-85
2022/07/04 12:57:07;;;;;;;2.35;0.50;;;;;;;;;;4982398;28;20026;-82
2022/07/04 12:59:32;;;;;;;1.75;0.30;;;;;;;;;;4998964;28;20143;-82
2022/07/04 13:01:58;;;;;;;3.00;0.60;;;;;;;;;;4994843;28;20491;-83
2022/07/04 13:04:23;;;;;;;1.45;0.40;;;;;;;;;;4994936;28;20038;-83
2022/07/04 13:06:49;;;;;;;1.15;0.25;;;;;;;;;;5028122;28;20080;-83
2022/07/04 13:09:14;;;;;;;0.80;0.30;;;;;;;;;;5028047;28;20192;-84
2022/07/04 13:14:24;;;;;;;1.95;0.25;;;;;;;;;;5030431;28;20389;-82
2022/07/04 13:16:49;;;;;;;2.90;0.32;;;;;;;;;;5011317;28;20076;-83
2022/07/04 13:19:16;;;;;;;1.95;0.80;;;;;;;;;;5014455;28;20040;-83
2022/07/04 13:21:42;;;;;;;1.88;0.30;;;;;;;;;;5022431;28;20041;-84
2022/07/04 13:24:07;;;;;;;2.25;0.20;;;;;;;;;;5013989;28;20037;-82
2022/07/04 13:26:34;;;;;;;1.33;0.38;;;;;;;;;;5006146;28;20250;-83
2022/07/04 13:29:03;;;;;;;1.48;0.25;;;;;;;;;;5013673;28;20044;-83
2022/07/04 13:31:28;;;;;;;2.03;0.52;;;;;;;;;;5012909;28;20025;-83
2022/07/04 13:33:54;;;;;;;0.80;0.30;;;;;;;;;;5014536;28;20389;-83
2022/07/04 13:36:19;;;;;;;1.25;0.32;;;;;;;;;;5026778;28;20187;-84
2022/07/04 13:38:47;;;;;;;1.58;0.45;;;;;;;;;;5044326;28;20044;-88
2022/07/04 13:41:13;;;;;;;1.50;0.30;;;;;;;;;;5028983;28;20033;-85
2022/07/04 13:43:40;;;;;;;1.35;0.20;;;;;;;;;;5027770;28;20503;-85
2022/07/04 13:46:07;;;;;;;8.50;1.48;;;;;;;;;;5044372;28;20038;-86
2022/07/04 13:48:32;;;;;;;10.60;1.85;;;;;;;;;;4994775;28;20420;-85
2022/07/04 13:51:01;;;;;;;12.57;1.88;;;;;;;;;;5044528;28;20038;-85
2022/07/04 13:53:26;;;;;;;16.23;2.25;;;;;;;;;;5044423;28;20040;-86
2022/07/04 13:55:53;;;;;;;18.48;2.58;;;;;;;;;;5044444;28;20037;-84
2022/07/04 13:58:19;;;;;;;22.92;2.47;;;;;;;;;;5043769;28;20034;-88
2022/07/04 14:00:46;;;;;;;9.32;2.30;;;;;;;;;;5011648;28;20034;-87
2022/07/04 14:03:12;;;;;;;10.07;0.85;;;;;;;;;;5044741;28;20061;-86
2022/07/04 14:05:40;;;;;;;6.40;0.73;;;;;;;;;;5043934;28;20037;-87
2022/07/04 14:08:06;;;;;;;3.00;0.30;;;;;;;;;;5044573;28;20133;-86
2022/07/04 14:10:33;;;;;;;4.80;0.98;;;;;;;;;;5044702;28;20040;-85
2022/07/04 14:12:58;;;;;;;3.13;0.77;;;;;;;;;;5044051;28;20121;-85
2022/07/04 14:15:25;;;;;;;2.95;0.50;;;;;;;;;;5011186;28;20053;-85
2022/07/04 14:17:51;;;;;;;3.15;0.40;;;;;;;;;;5011213;28;20120;-86
2022/07/04 14:20:18;;;;;;;2.70;0.65;;;;;;;;;;5031748;28;20117;-86
2022/07/04 14:22:43;;;;;;;4.63;0.45;;;;;;;;;;4998095;28;20393;-85
2022/07/04 14:25:09;;;;;;;1.27;0.38;;;;;;;;;;4998044;28;20056;-85
2022/07/04 14:27:34;;;;;;;3.65;0.95;;;;;;;;;;4997716;28;20407;-85
2022/07/04 14:30:01;;;;;;;3.30;0.50;;;;;;;;;;4998006;28;20029;-86
2022/07/04 14:32:26;;;;;;;2.22;0.30;;;;;;;;;;4997916;28;20042;-85
2022/07/04 14:34:52;;;;;;;2.25;0.47;;;;;;;;;;4997914;28;20136;-85
2022/07/04 14:37:18;;;;;;;1.50;0.25;;;;;;;;;;4998210;28;20044;-85
2022/07/04 14:39:43;;;;;;;2.85;0.50;;;;;;;;;;5013905;28;20045;-85
2022/07/04 14:42:09;;;;;;;1.45;0.40;;;;;;;;;;5013866;28;20029;-84
2022/07/04 14:44:38;;;;;;;2.55;0.57;;;;;;;;;;5006211;28;20034;-86
2022/07/04 14:47:06;;;;;;;2.35;1.23;;;;;;;;;;5036141;28;20042;-86
2022/07/04 14:49:32;;;;;;;2.92;0.50;;;;;;;;;;5033787;28;20047;-86
2022/07/04 14:52:00;;;;;;;2.03;0.30;;;;;;;;;;5034092;28;20407;-85
2022/07/04 14:54:26;;;;;;;1.17;0.60;;;;;;;;;;5033921;28;20065;-85
2022/07/04 14:56:52;;;;;;;2.08;0.43;;;;;;;;;;5033545;28;20038;-84
2022/07/04 14:59:18;;;;;;;1.77;0.30;;;;;;;;;;5033542;28;20033;-84
2022/07/04 15:01:44;;;;;;;1.27;0.50;;;;;;;;;;5033079;28;20045;-85
2022/07/04 15:04:10;;;;;;;2.83;0.30;;;;;;;;;;5000928;28;20040;-83
2022/07/04 15:06:36;;;;;;;3.58;0.90;;;;;;;;;;5016874;28;20029;-83